Time;durP1;ratioP1;P1;durP2;ratioP2;P2;SDS_P1;SDS_P2;PMS_P1;PMS_P2;Temp;Humidity;BMP_temperature;BMP_pressure;BME280_temperature;BME280_humidity;BME280_pressure;Samples;Min_cycle;Max_cycle;Signal;HPM_P1;HPM_P2
2022/11/10 00:00:07;;;;;;;14.43;3.80;;;;;;;11.76;100.00;101579.22;6094163;23;20014;-55
2022/11/10 00:02:53;;;;;;;14.68;4.07;;;;;;;11.75;100.00;101578.38;6095490;23;20023;-58
2022/11/10 00:05:40;;;;;;;13.85;3.53;;;;;;;11.73;100.00;101586.00;6096594;23;20050;-59
2022/11/10 00:08:26;;;;;;;;;;;;;;;11.73;100.00;101583.28;6098420;23;20014;-59
2022/11/10 00:11:12;;;;;;;15.48;3.80;;;;;;;11.70;100.00;101578.34;6096530;23;19940;-59
2022/11/10 00:17:03;;;;;;;14.60;3.30;;;;;;;11.67;100.00;101587.06;6098433;23;20338;-58
2022/11/10 00:19:49;;;;;;;11.05;3.50;;;;;;;11.65;100.00;101581.84;6097814;23;20026;-56
2022/11/10 00:22:37;;;;;;;9.63;3.30;;;;;;;11.66;100.00;101588.94;6098217;23;20023;-55
2022/11/10 00:25:23;;;;;;;10.07;3.53;;;;;;;11.64;100.00;101591.13;6097520;23;20328;-56
2022/11/10 00:28:09;;;;;;;14.70;4.05;;;;;;;11.65;100.00;101600.13;6098327;23;20448;-54
2022/11/10 00:30:55;;;;;;;12.02;3.35;;;;;;;11.66;100.00;101596.31;6097900;23;20023;-53
2022/11/10 00:33:43;;;;;;;10.18;3.30;;;;;;;11.66;100.00;101597.13;6097274;23;20045;-56
2022/11/10 00:36:29;;;;;;;14.95;3.95;;;;;;;11.63;100.00;101602.28;6098448;23;20105;-55
2022/11/10 00:39:15;;;;;;;12.60;3.78;;;;;;;11.58;100.00;101604.97;6098153;23;20019;-57
2022/11/10 00:42:00;;;;;;;13.20;3.42;;;;;;;11.58;100.00;101607.69;6097483;23;20024;-59
2022/11/10 00:44:46;;;;;;;12.13;3.78;;;;;;;11.57;100.00;101606.03;6098025;23;20375;-59
2022/11/10 00:47:32;;;;;;;12.00;3.50;;;;;;;11.56;100.00;101612.56;6096347;23;20022;-58
2022/11/10 00:50:18;;;;;;;;;;;;;;;11.56;100.00;101616.13;6098883;23;20395;-58
2022/11/10 00:53:04;;;;;;;16.52;3.83;;;;;;;11.55;100.00;101611.75;6097461;23;19961;-58
2022/11/10 00:55:50;;;;;;;11.15;3.08;;;;;;;11.52;100.00;101620.47;6097905;23;20022;-59
2022/11/10 00:58:36;;;;;;;12.80;3.60;;;;;;;11.50;100.00;101617.16;6098494;23;20406;-59
2022/11/10 01:01:23;;;;;;;10.10;3.47;;;;;;;11.50;100.00;101617.16;6098692;23;20022;-58
2022/11/10 01:04:10;;;;;;;12.15;3.42;;;;;;;11.49;100.00;101619.03;6099262;23;20046;-58
2022/11/10 01:06:56;;;;;;;;;;;;;;;11.57;100.00;101616.94;6098605;23;20026;-57
2022/11/10 01:09:42;;;;;;;12.68;3.35;;;;;;;11.55;100.00;101630.03;6098121;23;19917;-61
2022/11/10 01:12:29;;;;;;;12.25;3.35;;;;;;;11.50;100.00;101623.44;6097575;23;20022;-59
2022/11/10 01:15:16;;;;;;;12.55;4.00;;;;;;;11.49;100.00;101626.41;6097083;23;20033;-61
2022/11/10 01:18:01;;;;;;;13.38;3.58;;;;;;;11.47;100.00;101640.31;6097194;23;20460;-58
2022/11/10 01:20:51;;;;;;;14.65;3.70;;;;;;;11.44;100.00;101646.28;6097507;23;20022;-61
2022/11/10 01:23:37;;;;;;;10.75;3.28;;;;;;;11.47;100.00;101643.06;6097485;23;20086;-59
2022/11/10 01:26:23;;;;;;;;;;;;;;;11.46;100.00;101665.94;6098170;23;20026;-58
2022/11/10 01:29:09;;;;;;;13.68;3.50;;;;;;;11.43;100.00;101661.00;6096300;23;19917;-56
2022/11/10 01:31:56;;;;;;;12.52;3.50;;;;;;;11.44;100.00;101661.81;6097732;23;20081;-59
2022/11/10 01:34:42;;;;;;;;;;;;;;;11.47;100.00;101658.56;6097615;23;20042;-59
2022/11/10 01:37:28;;;;;;;13.07;3.60;;;;;;;11.44;100.00;101661.81;6097474;23;19917;-61
2022/11/10 01:40:14;;;;;;;;;;;;;;;11.42;100.00;101672.97;6098368;23;20022;-58
2022/11/10 01:43:00;;;;;;;13.05;3.78;;;;;;;11.40;100.00;101672.44;6097533;23;19917;-56
2022/11/10 01:45:54;;;;;;;12.65;3.20;;;;;;;11.40;100.00;101671.59;6095116;23;20530;-58
2022/11/10 01:48:58;;;;;;;15.25;4.35;;;;;;;11.38;100.00;101674.59;6097822;23;20018;-61
2022/11/10 01:51:51;;;;;;;11.45;3.47;;;;;;;11.35;100.00;101666.88;6096654;23;20025;-60
2022/11/10 01:54:43;;;;;;;12.77;3.38;;;;;;;11.35;100.00;101672.34;6096821;23;20014;-58
2022/11/10 01:57:29;;;;;;;13.13;3.67;;;;;;;11.34;100.00;101667.97;6095585;23;20022;-57
2022/11/10 02:00:17;;;;;;;11.35;3.30;;;;;;;11.35;100.00;101669.59;6096160;23;20022;-58
2022/11/10 02:03:06;;;;;;;15.00;3.78;;;;;;;11.36;100.00;101671.28;6097009;23;20018;-58
2022/11/10 02:05:52;;;;;;;12.23;3.70;;;;;;;11.37;100.00;101656.53;6096087;23;20451;-60
2022/11/10 02:08:40;;;;;;;12.55;3.75;;;;;;;11.34;100.00;101651.59;6095790;23;20018;-57
2022/11/10 02:11:27;;;;;;;10.68;3.00;;;;;;;11.35;100.00;101658.69;6095701;23;20054;-59
2022/11/10 02:14:14;;;;;;;14.98;3.67;;;;;;;11.34;100.00;101678.88;6096926;23;20038;-59
2022/11/10 02:17:00;;;;;;;13.65;3.90;;;;;;;11.33;100.00;101669.06;6097260;23;20022;-58
2022/11/10 02:19:46;;;;;;;;;;;;;;;11.35;100.00;101675.06;6097270;23;20447;-59
2022/11/10 02:22:33;;;;;;;11.95;3.28;;;;;;;11.32;100.00;101677.50;6096710;23;19917;-59
2022/11/10 02:25:21;;;;;;;14.00;3.50;;;;;;;11.28;100.00;101682.59;6097300;23;20093;-59
2022/11/10 02:28:07;;;;;;;12.77;3.15;;;;;;;11.23;100.00;101688.00;6095791;23;20018;-57
2022/11/10 02:30:53;;;;;;;;;;;;;;;11.23;100.00;101696.19;6096020;23;20026;-59
2022/11/10 02:33:39;;;;;;;14.02;4.10;;;;;;;11.22;100.00;101703.53;6094002;23;19920;-59
2022/11/10 02:36:25;;;;;;;;;;;;;;;11.25;100.00;101708.50;6095831;23;20049;-59
2022/11/10 02:39:11;;;;;;;12.95;3.40;;;;;;;11.25;100.00;101713.13;6097224;23;19921;-58
2022/11/10 02:41:57;;;;;;;;;;;;;;;11.23;100.00;101704.38;6097374;23;20046;-60
2022/11/10 02:44:43;;;;;;;11.32;3.65;;;;;;;11.21;100.00;101710.09;6096769;23;20338;-57
2022/11/10 02:47:29;;;;;;;;;;;;;;;11.22;100.00;101714.44;6097442;23;20507;-59
2022/11/10 02:50:15;;;;;;;13.68;3.78;;;;;;;11.20;100.00;101715.78;6096359;23;20000;-56
2022/11/10 02:53:01;;;;;;;10.23;3.15;;;;;;;11.20;100.00;101710.31;6097017;23;20022;-60
2022/11/10 02:55:47;;;;;;;;;;;;;;;11.19;100.00;101719.59;6097761;23;20022;-60
2022/11/10 02:58:33;;;;;;;12.70;3.78;;;;;;;11.18;100.00;101710.56;6096894;23;19917;-60
2022/11/10 03:01:19;;;;;;;;;;;;;;;11.21;100.00;101723.72;6096782;23;20050;-58
2022/11/10 03:04:06;;;;;;;15.95;3.92;;;;;;;11.16;100.00;101731.00;6096719;23;19917;-60
2022/11/10 03:06:52;;;;;;;15.85;3.05;;;;;;;11.14;100.00;101730.44;6097362;23;20046;-58
2022/11/10 03:09:39;;;;;;;11.38;3.55;;;;;;;11.12;100.00;101719.78;6096658;23;20030;-60
2022/11/10 03:12:25;;;;;;;10.68;3.70;;;;;;;11.13;100.00;101724.13;6096423;23;20022;-59
2022/11/10 03:15:11;;;;;;;14.18;3.33;;;;;;;11.12;100.00;101718.94;6096590;23;20026;-59
2022/11/10 03:18:03;;;;;;;12.18;3.58;;;;;;;11.15;100.00;101723.91;6096922;23;20015;-58
2022/11/10 03:20:50;;;;;;;12.77;3.55;;;;;;;11.12;100.00;101735.31;6097012;23;20030;-59
2022/11/10 03:23:36;;;;;;;12.70;3.53;;;;;;;11.11;100.00;101739.09;6096581;23;20093;-61
2022/11/10 03:26:22;;;;;;;11.48;3.78;;;;;;;11.09;100.00;101742.91;6096830;23;20097;-58
2022/11/10 03:29:08;;;;;;;13.60;3.83;;;;;;;11.08;100.00;101754.06;6096525;23;20019;-55
2022/11/10 03:31:54;;;;;;;12.65;3.55;;;;;;;11.07;100.00;101753.25;6096446;23;20027;-55
2022/11/10 03:34:40;;;;;;;12.95;3.42;;;;;;;11.05;100.00;101757.28;6094910;23;20030;-54
2022/11/10 03:37:26;;;;;;;11.80;3.35;;;;;;;11.06;100.00;101758.94;6096263;23;20022;-55
2022/11/10 03:40:12;;;;;;;15.00;3.80;;;;;;;11.03;100.00;101759.44;6096472;23;20019;-53
2022/11/10 03:42:58;;;;;;;;;;;;;;;11.01;100.00;101765.13;6098371;23;20022;-54
2022/11/10 03:45:44;;;;;;;15.98;4.10;;;;;;;10.98;100.00;101773.81;6097920;23;20323;-53
2022/11/10 03:48:30;;;;;;;11.90;3.65;;;;;;;10.89;100.00;101769.84;6098433;23;20097;-54
2022/11/10 03:51:17;;;;;;;14.65;3.65;;;;;;;10.88;100.00;101779.09;6098446;23;20018;-52
2022/11/10 03:54:03;;;;;;;15.02;4.13;;;;;;;10.88;100.00;101779.09;6098445;23;20022;-57
2022/11/10 03:56:50;;;;;;;14.07;3.53;;;;;;;10.88;100.00;101788.09;6098442;23;20054;-56
2022/11/10 03:59:36;;;;;;;;;;;;;;;10.89;100.00;101783.47;6098830;23;20019;-57
2022/11/10 04:02:22;;;;;;;13.35;3.63;;;;;;;10.90;100.00;101782.41;6098589;23;20326;-58
2022/11/10 04:17:31;;;;;;;12.50;3.58;;;;;;;10.93;100.00;101809.19;6098391;23;20022;-58
2022/11/10 04:20:17;;;;;;;10.32;3.33;;;;;;;10.87;100.00;101816.44;6099094;23;20066;-59
2022/11/10 04:26:28;;;;;;;;;;;;;;;10.83;100.00;101839.81;6105427;23;20023;-58
2022/11/10 04:29:16;;;;;;;13.35;3.30;;;;;;;10.81;100.00;101844.69;6104549;23;20389;-58
2022/11/10 04:32:02;;;;;;;12.95;3.28;;;;;;;10.80;100.00;101853.09;6102001;23;20451;-57
2022/11/10 04:34:48;;;;;;;13.07;3.28;;;;;;;10.81;100.00;101854.75;6100912;23;20082;-57
2022/11/10 04:37:34;;;;;;;;;;;;;;;10.81;100.00;101861.03;6102775;23;20022;-60
2022/11/10 04:40:20;;;;;;;11.77;3.78;;;;;;;10.82;100.00;101872.75;6102711;23;20008;-59
2022/11/10 04:43:06;;;;;;;;;;;;;;;10.82;100.00;101868.16;6100430;23;20019;-57
2022/11/10 04:45:53;;;;;;;13.60;3.92;;;;;;;10.78;100.00;101869.72;6100616;23;20000;-56
2022/11/10 04:48:39;;;;;;;12.80;3.22;;;;;;;10.82;100.00;101878.22;6100504;23;20022;-53
2022/11/10 04:51:26;;;;;;;;;;;;;;;10.84;100.00;101876.91;6101672;23;20396;-55
2022/11/10 04:54:12;;;;;;;12.55;3.42;;;;;;;10.81;100.00;101893.75;6100887;23;20246;-53
2022/11/10 04:56:58;;;;;;;13.15;3.58;;;;;;;10.80;100.00;101892.09;6099614;23;20029;-59
2022/11/10 04:59:44;;;;;;;11.77;3.42;;;;;;;10.78;100.00;101890.69;6104549;23;20460;-60
2022/11/10 05:02:30;;;;;;;12.15;3.53;;;;;;;10.78;100.00;101893.44;6105239;23;20029;-57
2022/11/10 05:05:24;;;;;;;13.38;3.85;;;;;;;10.74;100.00;101897.69;6100922;23;20015;-55
2022/11/10 05:08:12;;;;;;;16.08;4.05;;;;;;;10.76;100.00;101898.28;6098534;23;20023;-58
2022/11/10 05:10:58;;;;;;;13.25;3.80;;;;;;;10.76;100.00;101898.28;6097879;23;20021;-58
2022/11/10 05:13:45;;;;;;;12.30;3.53;;;;;;;10.74;100.00;101895.78;6097490;23;20098;-60
2022/11/10 05:16:31;;;;;;;13.13;3.35;;;;;;;10.73;100.00;101896.06;6097863;23;20026;-54
2022/11/10 05:19:17;;;;;;;11.75;3.47;;;;;;;10.70;100.00;101894.63;6097981;23;20023;-59
2022/11/10 05:22:03;;;;;;;16.13;3.78;;;;;;;10.70;100.00;101891.88;6097036;23;20019;-57
2022/11/10 05:24:49;;;;;;;11.68;3.90;;;;;;;10.68;100.00;101888.59;6096835;23;20297;-58
2022/11/10 05:27:35;;;;;;;15.13;4.25;;;;;;;10.72;100.00;101899.84;6097683;23;20100;-59
2022/11/10 05:30:21;;;;;;;16.85;4.25;;;;;;;10.69;100.00;101897.59;6098121;23;20026;-59
2022/11/10 05:33:07;;;;;;;13.80;3.80;;;;;;;10.66;100.00;101891.56;6096364;23;20027;-59
2022/11/10 05:35:53;;;;;;;13.70;3.35;;;;;;;10.64;100.00;101896.41;6097897;23;20026;-55
2022/11/10 05:38:39;;;;;;;14.88;4.05;;;;;;;10.62;100.00;101901.28;6097589;23;20025;-58
2022/11/10 05:41:28;;;;;;;13.52;3.92;;;;;;;10.63;100.00;101900.22;6097443;23;20018;-59
2022/11/10 05:44:14;;;;;;;15.10;3.95;;;;;;;10.63;100.00;101908.41;6097105;23;20062;-59
2022/11/10 05:47:00;;;;;;;14.40;3.72;;;;;;;10.59;100.00;101903.69;6096948;23;20466;-59
2022/11/10 05:49:46;;;;;;;11.70;3.75;;;;;;;10.59;100.00;101907.22;6097356;23;20022;-58
2022/11/10 05:52:32;;;;;;;;;;;;;;;10.59;100.00;101915.41;6097236;23;20078;-57
2022/11/10 05:55:20;;;;;;;12.60;3.70;;;;;;;10.56;100.00;101918.63;6096854;23;19917;-58
2022/11/10 05:58:06;;;;;;;10.82;3.13;;;;;;;10.58;100.00;101927.38;6097192;23;20030;-58
2022/11/10 06:00:52;;;;;;;13.10;4.00;;;;;;;10.57;100.00;101936.59;6095892;23;20022;-58
2022/11/10 06:03:38;;;;;;;;;;;;;;;10.55;100.00;101933.28;6097124;23;20030;-58
2022/11/10 06:06:24;;;;;;;11.50;3.55;;;;;;;10.55;100.00;101927.84;6096594;23;19917;-59
2022/11/10 06:09:10;;;;;;;14.77;3.50;;;;;;;10.56;100.00;101943.13;6095765;23;20026;-59
2022/11/10 06:11:56;;;;;;;11.55;3.50;;;;;;;10.56;100.00;101940.41;6095668;23;20093;-58
2022/11/10 06:14:43;;;;;;;12.05;3.50;;;;;;;10.55;100.00;101949.66;6096347;23;20018;-58
2022/11/10 06:17:29;;;;;;;15.07;3.63;;;;;;;10.51;100.00;101951.22;6095105;23;20131;-58
2022/11/10 06:20:16;;;;;;;12.63;3.83;;;;;;;10.49;100.00;101945.16;6096893;23;20022;-59
2022/11/10 06:23:12;;;;;;;13.88;3.78;;;;;;;10.48;100.00;101957.13;6096893;23;20050;-59
2022/11/10 06:25:58;;;;;;;13.98;4.47;;;;;;;10.49;100.00;101963.41;6096259;23;20040;-57
2022/11/10 06:28:44;;;;;;;13.38;4.00;;;;;;;10.49;100.00;101958.78;6096469;23;20104;-59
2022/11/10 06:31:29;;;;;;;16.08;3.95;;;;;;;10.52;100.00;101955.59;6096259;23;20418;-58
2022/11/10 06:34:15;;;;;;;13.25;3.80;;;;;;;10.57;100.00;101969.31;6094137;23;20022;-61
2022/11/10 06:37:01;;;;;;;13.57;3.50;;;;;;;10.59;100.00;101967.19;6092958;23;20030;-58
2022/11/10 06:39:47;;;;;;;7.85;2.80;;;;;;;10.62;100.00;101972.16;6091317;23;20415;-60
2022/11/10 06:42:34;;;;;;;13.13;3.75;;;;;;;10.60;100.00;101978.91;6092723;23;20125;-57
2022/11/10 06:45:20;;;;;;;11.20;3.55;;;;;;;10.56;100.00;101986.75;6092750;23;20443;-58
2022/11/10 06:48:12;;;;;;;12.65;3.97;;;;;;;10.54;100.00;101999.78;6093020;23;20023;-58
2022/11/10 06:51:02;;;;;;;12.13;3.40;;;;;;;10.53;100.00;102003.56;6091732;23;20101;-60
2022/11/10 06:53:48;;;;;;;10.10;3.28;;;;;;;10.49;100.00;102009.75;6091047;23;20026;-58
2022/11/10 06:56:34;;;;;;;13.18;3.78;;;;;;;10.45;100.00;102012.09;6093281;23;20026;-59
2022/11/10 06:59:20;;;;;;;8.90;2.88;;;;;;;10.69;100.00;102020.25;6093117;23;20022;-59
2022/11/10 07:02:08;;;;;;;;;;;;;;;10.60;100.00;102026.06;6093346;23;20042;-58
2022/11/10 07:04:55;;;;;;;12.13;3.10;;;;;;;10.58;100.00;102024.63;6069928;23;19928;-58
2022/11/10 07:07:41;;;;;;;;;;;;;;;10.58;100.00;102025.50;6092805;23;20553;-59
2022/11/10 07:10:27;;;;;;;8.45;3.17;;;;;;;10.50;100.00;102031.28;6093817;23;20018;-59
2022/11/10 07:13:13;;;;;;;10.38;3.20;;;;;;;10.60;100.00;102034.22;6092269;23;20525;-61
2022/11/10 07:16:03;;;;;;;14.07;3.17;;;;;;;10.66;100.00;102036.03;6092217;23;20046;-61
2022/11/10 07:18:49;;;;;;;12.23;3.35;;;;;;;10.65;100.00;102048.00;6092898;23;20406;-57
2022/11/10 07:21:36;;;;;;;14.05;4.75;;;;;;;10.62;100.00;102053.09;6092638;23;20059;-60
2022/11/10 07:24:22;;;;;;;11.60;3.70;;;;;;;10.57;100.00;102056.53;6092110;23;20097;-61
2022/11/10 07:27:08;;;;;;;15.35;3.92;;;;;;;10.59;100.00;102068.03;6092697;23;20025;-56
2022/11/10 07:29:54;;;;;;;13.73;4.22;;;;;;;10.51;100.00;102079.28;6089940;23;20018;-60
2022/11/10 07:32:40;;;;;;;11.45;3.05;;;;;;;10.50;100.00;102085.78;6092759;23;20031;-58
2022/11/10 07:35:27;;;;;;;11.18;2.78;;;;;;;10.59;100.00;102076.19;6096484;23;20022;-53
2022/11/10 07:38:14;;;;;;;13.55;3.58;;;;;;;10.80;100.00;102076.66;6096830;23;20038;-56
2022/11/10 07:41:00;;;;;;;15.40;4.28;;;;;;;10.58;100.00;102077.28;6095955;23;20343;-51
2022/11/10 07:43:46;;;;;;;;;;;;;;;10.46;100.00;102081.88;6093902;23;20050;-56
2022/11/10 07:46:31;;;;;;;;;;;;;;;10.40;100.00;102082.81;6096804;23;19917;-54
2022/11/10 07:49:18;;;;;;;18.08;5.10;;;;;;;10.36;100.00;102077.00;6096058;23;19917;-54
2022/11/10 07:52:04;;;;;;;5.82;2.78;;;;;;;10.47;100.00;102082.72;6095917;23;20022;-56
2022/11/10 07:54:49;;;;;;;;;;;;;;;10.55;100.00;102083.19;6097064;23;20022;-50
2022/11/10 07:57:36;;;;;;;12.55;3.38;;;;;;;10.62;100.00;102081.16;6096576;23;19941;-56
2022/11/10 08:00:22;;;;;;;12.30;3.45;;;;;;;10.70;100.00;102092.78;6096636;23;20813;-52
2022/11/10 08:03:11;;;;;;;15.93;3.90;;;;;;;10.71;100.00;102095.28;6096570;23;20022;-57
2022/11/10 08:05:58;;;;;;;16.38;4.00;;;;;;;10.60;100.00;102105.09;6096867;23;20018;-53
2022/11/10 08:08:46;;;;;;;13.77;3.83;;;;;;;10.58;100.00;102104.53;6095452;23;20121;-57
2022/11/10 08:11:32;;;;;;;13.68;3.63;;;;;;;10.59;100.00;102108.91;6096282;23;20019;-55
2022/11/10 08:14:18;;;;;;;;;;;;;;;10.59;100.00;102117.06;6096867;23;20010;-58
2022/11/10 08:17:04;;;;;;;13.90;3.53;;;;;;;10.60;100.00;102134.25;6096453;23;19924;-56
2022/11/10 08:19:50;;;;;;;10.23;2.85;;;;;;;10.73;100.00;102141.41;6096761;23;20026;-56
2022/11/10 08:22:36;;;;;;;12.23;3.85;;;;;;;10.74;100.00;102143.03;6095496;23;20018;-54
2022/11/10 08:25:22;;;;;;;16.33;4.45;;;;;;;10.93;100.00;102143.75;6095234;23;20018;-55
2022/11/10 08:28:13;;;;;;;14.85;4.35;;;;;;;10.99;100.00;102140.91;6096660;23;20022;-57
2022/11/10 08:31:02;;;;;;;14.02;4.00;;;;;;;11.11;100.00;102131.88;6097814;23;20460;-56
2022/11/10 08:33:51;;;;;;;14.45;4.75;;;;;;;11.36;100.00;102137.06;6097224;23;20064;-56
2022/11/10 08:36:37;;;;;;;;;;;;;;;11.32;100.00;102128.50;6097953;23;20029;-57
2022/11/10 08:39:23;;;;;;;11.95;3.80;;;;;;;11.32;100.00;102125.78;6097791;23;19921;-56
2022/11/10 08:42:23;;;;;;;11.57;3.22;;;;;;;11.39;100.00;102129.19;6097782;23;20443;-57
2022/11/10 08:45:10;;;;;;;11.95;4.00;;;;;;;11.36;100.00;102137.88;6097587;23;20026;-55
2022/11/10 08:47:59;;;;;;;;;;;;;;;11.28;100.00;102140.97;6098595;23;20019;-54
2022/11/10 08:50:46;;;;;;;16.42;4.75;;;;;;;11.17;100.00;102147.28;6076275;23;19917;-56
2022/11/10 08:53:32;;;;;;;12.02;3.40;;;;;;;11.17;100.00;102152.75;6098262;23;20022;-55
2022/11/10 08:56:18;;;;;;;13.35;3.83;;;;;;;11.25;100.00;102152.38;6098342;23;20325;-56
2022/11/10 08:59:04;;;;;;;16.20;4.22;;;;;;;11.24;100.00;102157.00;6098032;23;20343;-54
2022/11/10 09:01:50;;;;;;;15.20;4.30;;;;;;;11.49;100.00;102162.16;6097427;23;20015;-57
2022/11/10 09:04:36;;;;;;;14.10;4.45;;;;;;;11.61;100.00;102161.31;6096917;23;20101;-55
2022/11/10 09:07:22;;;;;;;15.27;4.75;;;;;;;11.42;100.00;102172.38;6097672;23;20019;-56
2022/11/10 09:10:08;;;;;;;12.20;3.63;;;;;;;11.47;100.00;102175.25;6096520;23;20022;-56
2022/11/10 09:12:59;;;;;;;15.77;4.32;;;;;;;11.43;100.00;102165.88;6096642;23;20023;-57
2022/11/10 09:15:45;;;;;;;14.07;4.40;;;;;;;11.77;100.00;102176.94;6097205;23;20022;-56
2022/11/10 09:18:31;;;;;;;14.27;4.63;;;;;;;11.70;100.00;102185.25;6096394;23;20085;-56
2022/11/10 09:21:18;;;;;;;15.38;3.72;;;;;;;11.57;100.00;102184.69;6097289;23;20054;-53
2022/11/10 09:24:04;;;;;;;15.68;4.63;;;;;;;11.61;100.00;102180.41;6099102;23;20028;-54
2022/11/10 09:26:51;;;;;;;14.40;4.13;;;;;;;11.46;100.00;102184.47;6096859;23;20019;-55
2022/11/10 09:29:37;;;;;;;13.35;3.97;;;;;;;11.35;100.00;102188.06;6096669;23;20031;-54
2022/11/10 09:32:23;;;;;;;18.05;4.55;;;;;;;11.54;100.00;102191.47;6095727;23;20023;-51
2022/11/10 09:35:09;;;;;;;13.65;4.10;;;;;;;11.57;100.00;102190.16;6096546;23;20018;-52
2022/11/10 09:37:55;;;;;;;13.30;3.97;;;;;;;11.71;100.00;102188.81;6095661;23;20046;-56
2022/11/10 09:41:03;;;;;;;15.20;4.43;;;;;;;11.67;100.00;102195.84;6096351;23;20100;-54
2022/11/10 09:44:00;;;;;;;12.52;3.75;;;;;;;11.60;100.00;102200.59;6096094;23;20018;-55
2022/11/10 09:47:19;;;;;;;13.27;3.22;;;;;;;11.66;100.00;102191.44;6095923;23;20025;-57
2022/11/10 09:50:50;;;;;;;10.48;3.47;;;;;;;11.84;100.00;102207.66;6079609;23;20356;-56
2022/11/10 09:54:09;;;;;;;19.05;4.63;;;;;;;11.64;100.00;102199.88;6096479;23;20019;-58
2022/11/10 09:56:59;;;;;;;16.17;3.88;;;;;;;11.65;100.00;102196.06;6097500;23;20026;-52
2022/11/10 09:59:45;;;;;;;13.95;3.80;;;;;;;11.70;100.00;102200.81;6096833;23;20022;-55
2022/11/10 10:02:38;;;;;;;;;;;;;;;11.77;100.00;102204.22;6097732;23;20085;-57
2022/11/10 10:05:50;;;;;;;13.23;4.03;;;;;;;11.97;100.00;102197.53;6096060;23;20338;-50
2022/11/10 10:09:13;;;;;;;10.15;3.35;;;;;;;12.08;100.00;102204.88;6096798;23;20026;-53
2022/11/10 10:12:32;;;;;;;16.85;4.25;;;;;;;11.92;100.00;102204.56;6095881;23;20070;-52
2022/11/10 10:15:34;;;;;;;7.75;2.80;;;;;;;12.17;100.00;102211.63;6097032;23;20351;-52
2022/11/10 10:18:53;;;;;;;12.98;3.65;;;;;;;12.19;100.00;102225.84;6096502;23;20026;-55
2022/11/10 10:21:58;;;;;;;10.60;3.72;;;;;;;12.26;100.00;102222.97;6096179;23;20018;-52
2022/11/10 10:24:44;;;;;;;13.98;3.42;;;;;;;12.30;100.00;102233.16;6097647;23;20022;-56
2022/11/10 10:27:32;;;;;;;12.90;3.70;;;;;;;12.36;100.00;102239.53;6096276;23;20018;-57
2022/11/10 10:30:19;;;;;;;17.55;4.55;;;;;;;12.14;100.00;102231.22;6094154;23;20050;-52
2022/11/10 10:33:16;;;;;;;15.55;4.03;;;;;;;11.93;100.00;102241.75;6096286;23;20019;-55
2022/11/10 10:36:07;;;;;;;20.27;5.30;;;;;;;11.86;100.00;102235.56;6096788;23;20049;-51
2022/11/10 10:39:09;;;;;;;15.25;4.75;;;;;;;11.84;100.00;102245.06;6094478;23;20022;-54
2022/11/10 10:41:55;;;;;;;19.42;4.40;;;;;;;11.86;100.00;102259.31;6095900;23;20026;-56
2022/11/10 10:45:14;;;;;;;18.80;4.93;;;;;;;11.85;100.00;102252.19;6095577;23;20098;-55
2022/11/10 10:48:01;;;;;;;11.88;3.85;;;;;;;11.90;100.00;102268.69;6096782;23;20044;-55
2022/11/10 10:50:49;;;;;;;20.73;4.70;;;;;;;11.90;100.00;102277.72;6096177;23;20328;-56
2022/11/10 10:53:46;;;;;;;15.75;4.10;;;;;;;11.94;100.00;102284.38;6096550;23;20026;-55
2022/11/10 10:56:32;;;;;;;13.95;4.05;;;;;;;11.98;100.00;102272.94;6096712;23;20404;-53
2022/11/10 10:59:21;;;;;;;16.65;4.40;;;;;;;12.02;100.00;102283.16;6095130;23;20103;-54
2022/11/10 11:02:29;;;;;;;17.33;4.47;;;;;;;12.04;100.00;102278.28;6095217;23;20097;-54
2022/11/10 11:05:19;;;;;;;18.05;4.80;;;;;;;12.05;100.00;102273.63;6098121;23;20091;-54
2022/11/10 11:08:05;;;;;;;19.63;5.00;;;;;;;12.06;100.00;102278.03;6100306;23;20023;-55
2022/11/10 11:10:51;;;;;;;18.23;4.43;;;;;;;12.12;100.00;102263.41;6104787;23;20021;-53
2022/11/10 11:13:37;;;;;;;19.38;4.57;;;;;;;12.13;100.00;102267.81;6105940;23;20389;-55
2022/11/10 11:16:23;;;;;;;20.23;4.47;;;;;;;12.14;100.00;102261.25;6101948;23;20022;-55
2022/11/10 11:19:09;;;;;;;14.57;5.15;;;;;;;12.19;100.00;102264.09;6096737;23;20424;-52
2022/11/10 11:21:59;;;;;;;;;;;;;;;12.54;100.00;102265.84;6096691;23;20028;-54
2022/11/10 11:24:51;;;;;;;31.42;12.27;;;;;;;12.53;100.00;102267.75;6097383;23;19996;-56
2022/11/10 11:27:56;;;;;;;19.67;6.38;;;;;;;12.79;100.00;102263.56;6097631;23;20022;-55
2022/11/10 11:31:09;;;;;;;33.55;13.20;;;;;;;12.92;100.00;102264.31;6095965;23;20030;-55
2022/11/10 11:34:28;;;;;;;28.30;10.40;;;;;;;12.79;100.00;102274.50;6097475;23;20018;-55
2022/11/10 11:37:45;;;;;;;29.17;11.93;;;;;;;12.92;100.00;102278.81;6096760;23;20030;-54
2022/11/10 11:41:12;;;;;;;39.65;14.23;;;;;;;13.21;100.00;102289.69;6092976;23;20030;-57
2022/11/10 11:44:01;;;;;;;29.30;8.32;;;;;;;13.11;100.00;102282.16;6095188;23;20026;-55
2022/11/10 11:47:05;;;;;;;31.05;11.85;;;;;;;13.02;100.00;102289.09;6095382;23;20452;-53
2022/11/10 11:50:11;;;;;;;17.67;5.22;;;;;;;12.95;100.00;102281.06;6092997;23;20023;-56
2022/11/10 11:53:16;;;;;;;20.80;6.47;;;;;;;12.93;100.00;102288.69;6071141;23;20019;-54
2022/11/10 11:56:17;;;;;;;30.70;10.10;;;;;;;13.00;100.00;102294.00;6092618;23;20110;-54
2022/11/10 11:59:41;;;;;;;14.98;4.35;;;;;;;12.86;100.00;102309.06;6092834;23;20026;-57
2022/11/10 12:02:46;;;;;;;22.17;7.43;;;;;;;12.97;100.00;102308.19;6092655;23;20078;-53
2022/11/10 12:06:03;;;;;;;15.50;4.88;;;;;;;12.93;100.00;102324.25;6093202;23;20026;-56
2022/11/10 12:09:28;;;;;;;23.10;7.93;;;;;;;13.02;100.00;102329.34;6093218;23;20054;-53
2022/11/10 12:12:37;;;;;;;23.10;8.55;;;;;;;13.01;100.00;102333.94;6027883;23;20070;-51
2022/11/10 12:15:32;;;;;;;18.10;7.95;;;;;;;13.12;100.00;102327.59;6095962;23;20050;-53
2022/11/10 12:18:24;;;;;;;21.00;6.80;;;;;;;13.10;100.00;102335.22;6096471;23;20057;-52
2022/11/10 12:21:17;;;;;;;16.48;4.60;;;;;;;13.10;100.00;102329.72;6098208;23;20242;-54
2022/11/10 12:24:18;;;;;;;22.23;7.93;;;;;;;13.14;100.00;102325.44;6097818;23;20027;-56
2022/11/10 12:27:11;;;;;;;21.25;8.23;;;;;;;13.29;100.00;102322.13;6097078;23;20018;-56
2022/11/10 12:30:09;;;;;;;24.75;8.70;;;;;;;13.53;100.00;102309.09;6096927;23;20474;-55
2022/11/10 12:33:21;;;;;;;19.95;7.57;;;;;;;13.70;100.00;102320.00;6097747;23;20021;-54
2022/11/10 12:36:11;;;;;;;20.23;7.63;;;;;;;13.54;100.00;102316.25;6097938;23;20097;-55
2022/11/10 12:39:06;;;;;;;16.75;6.53;;;;;;;13.58;100.00;102319.28;6097012;23;20026;-56
2022/11/10 12:41:59;;;;;;;18.80;7.63;;;;;;;13.62;100.00;102326.75;6097351;23;20026;-56
2022/11/10 12:45:01;;;;;;;20.85;4.70;;;;;;;13.52;100.00;102331.28;6096087;23;20022;-52
2022/11/10 12:47:48;;;;;;;15.18;4.60;;;;;;;13.39;100.00;102333.25;6098347;23;20014;-54
2022/11/10 12:51:00;;;;;;;16.52;4.85;;;;;;;13.42;100.00;102326.44;6097841;23;20019;-55
2022/11/10 12:53:47;;;;;;;21.05;7.55;;;;;;;13.65;100.00;102325.44;6097926;23;20023;-54
2022/11/10 12:56:43;;;;;;;15.75;5.70;;;;;;;13.66;100.00;102329.81;6096673;23;20022;-54
2022/11/10 12:59:35;;;;;;;17.70;4.53;;;;;;;13.71;100.00;102320.84;6096510;23;20049;-53
2022/11/10 13:02:36;;;;;;;16.92;5.43;;;;;;;13.78;100.00;102329.69;6096653;23;20023;-55
2022/11/10 13:05:33;;;;;;;20.15;6.90;;;;;;;13.76;100.00;102337.38;6096986;23;20022;-56
2022/11/10 13:08:40;;;;;;;16.67;5.80;;;;;;;13.72;100.00;102344.44;6097604;23;20022;-55
2022/11/10 13:11:35;;;;;;;14.43;6.05;;;;;;;13.88;100.00;102340.84;6097760;23;20018;-55
2022/11/10 13:14:23;;;;;;;14.33;5.23;;;;;;;13.88;100.00;102339.97;6097138;23;20034;-57
2022/11/10 13:17:26;;;;;;;17.20;6.35;;;;;;;13.96;100.00;102337.63;6097095;23;20023;-56
2022/11/10 13:20:37;;;;;;;14.43;5.15;;;;;;;13.92;100.00;102336.47;6097994;23;20022;-55